sensor_id;sensor_type;location;lat;lon;timestamp;P1;durP1;ratioP1;P2;durP2;ratioP2
32533;SDS011;18973;48.580;8.912;2023-02-13T00:02:17;28.48;;;15.70;;
32533;SDS011;18973;48.580;8.912;2023-02-13T00:04:42;22.98;;;15.75;;
32533;SDS011;18973;48.580;8.912;2023-02-13T00:07:11;20.38;;;13.90;;
32533;SDS011;18973;48.580;8.912;2023-02-13T00:09:37;25.73;;;14.57;;
32533;SDS011;18973;48.580;8.912;2023-02-13T00:12:04;22.83;;;14.43;;
32533;SDS011;18973;48.580;8.912;2023-02-13T00:14:33;22.20;;;12.80;;
32533;SDS011;18973;48.580;8.912;2023-02-13T00:17:00;24.73;;;15.02;;
32533;SDS011;18973;48.580;8.912;2023-02-13T00:19:26;29.00;;;15.10;;
32533;SDS011;18973;48.580;8.912;2023-02-13T00:21:52;22.40;;;13.85;;
32533;SDS011;18973;48.580;8.912;2023-02-13T00:24:17;28.88;;;15.95;;
32533;SDS011;18973;48.580;8.912;2023-02-13T00:26:43;27.38;;;14.73;;
32533;SDS011;18973;48.580;8.912;2023-02-13T00:29:09;26.63;;;15.23;;
32533;SDS011;18973;48.580;8.912;2023-02-13T00:31:34;23.63;;;13.98;;
32533;SDS011;18973;48.580;8.912;2023-02-13T00:34:00;30.55;;;16.50;;
32533;SDS011;18973;48.580;8.912;2023-02-13T00:36:26;29.27;;;17.40;;
32533;SDS011;18973;48.580;8.912;2023-02-13T00:38:52;29.67;;;16.83;;
32533;SDS011;18973;48.580;8.912;2023-02-13T00:41:18;29.25;;;15.13;;
32533;SDS011;18973;48.580;8.912;2023-02-13T00:43:44;29.67;;;16.55;;
32533;SDS011;18973;48.580;8.912;2023-02-13T00:46:11;30.85;;;16.75;;
32533;SDS011;18973;48.580;8.912;2023-02-13T00:48:36;28.85;;;15.50;;
32533;SDS011;18973;48.580;8.912;2023-02-13T00:51:02;27.38;;;15.88;;
32533;SDS011;18973;48.580;8.912;2023-02-13T00:53:29;29.88;;;15.77;;
32533;SDS011;18973;48.580;8.912;2023-02-13T00:55:55;27.23;;;16.60;;
32533;SDS011;18973;48.580;8.912;2023-02-13T00:58:21;29.25;;;16.90;;
32533;SDS011;18973;48.580;8.912;2023-02-13T01:00:47;22.38;;;15.23;;
32533;SDS011;18973;48.580;8.912;2023-02-13T01:03:16;24.90;;;16.08;;
32533;SDS011;18973;48.580;8.912;2023-02-13T01:05:42;26.40;;;16.27;;
32533;SDS011;18973;48.580;8.912;2023-02-13T01:08:09;22.88;;;15.98;;
32533;SDS011;18973;48.580;8.912;2023-02-13T01:10:36;25.73;;;16.17;;
32533;SDS011;18973;48.580;8.912;2023-02-13T01:13:02;22.85;;;15.20;;
32533;SDS011;18973;48.580;8.912;2023-02-13T01:15:28;26.75;;;15.60;;
32533;SDS011;18973;48.580;8.912;2023-02-13T01:17:54;27.02;;;15.70;;
32533;SDS011;18973;48.580;8.912;2023-02-13T01:20:21;29.48;;;15.90;;
32533;SDS011;18973;48.580;8.912;2023-02-13T01:22:48;24.33;;;14.55;;
32533;SDS011;18973;48.580;8.912;2023-02-13T01:25:14;23.33;;;15.13;;
32533;SDS011;18973;48.580;8.912;2023-02-13T01:27:39;25.77;;;15.18;;
32533;SDS011;18973;48.580;8.912;2023-02-13T01:30:05;25.98;;;14.85;;
32533;SDS011;18973;48.580;8.912;2023-02-13T01:32:35;23.50;;;15.55;;
32533;SDS011;18973;48.580;8.912;2023-02-13T01:35:02;26.92;;;15.75;;
32533;SDS011;18973;48.580;8.912;2023-02-13T01:37:28;24.42;;;14.55;;
32533;SDS011;18973;48.580;8.912;2023-02-13T01:39:54;25.60;;;15.43;;
32533;SDS011;18973;48.580;8.912;2023-02-13T01:42:30;23.40;;;14.07;;
32533;SDS011;18973;48.580;8.912;2023-02-13T01:44:58;23.50;;;15.10;;
32533;SDS011;18973;48.580;8.912;2023-02-13T01:47:44;25.27;;;15.05;;
32533;SDS011;18973;48.580;8.912;2023-02-13T01:52:56;27.38;;;17.55;;
32533;SDS011;18973;48.580;8.912;2023-02-13T01:55:31;27.67;;;16.50;;
32533;SDS011;18973;48.580;8.912;2023-02-13T01:58:10;29.33;;;17.92;;
32533;SDS011;18973;48.580;8.912;2023-02-13T02:00:39;24.92;;;15.55;;
32533;SDS011;18973;48.580;8.912;2023-02-13T02:03:11;23.85;;;15.52;;
32533;SDS011;18973;48.580;8.912;2023-02-13T02:05:39;27.55;;;15.40;;
32533;SDS011;18973;48.580;8.912;2023-02-13T02:08:06;22.42;;;14.50;;
32533;SDS011;18973;48.580;8.912;2023-02-13T02:10:34;24.58;;;15.73;;
32533;SDS011;18973;48.580;8.912;2023-02-13T02:13:11;22.25;;;15.05;;
32533;SDS011;18973;48.580;8.912;2023-02-13T02:15:40;26.63;;;15.27;;
32533;SDS011;18973;48.580;8.912;2023-02-13T02:26:34;22.85;;;14.23;;
32533;SDS011;18973;48.580;8.912;2023-02-13T02:40:32;24.20;;;14.75;;
32533;SDS011;18973;48.580;8.912;2023-02-13T02:46:07;18.58;;;12.63;;
32533;SDS011;18973;48.580;8.912;2023-02-13T02:54:16;30.63;;;17.48;;
32533;SDS011;18973;48.580;8.912;2023-02-13T02:57:11;36.00;;;18.63;;
32533;SDS011;18973;48.580;8.912;2023-02-13T02:59:40;31.02;;;17.10;;
32533;SDS011;18973;48.580;8.912;2023-02-13T03:02:26;25.10;;;16.48;;
32533;SDS011;18973;48.580;8.912;2023-02-13T03:05:26;25.48;;;16.33;;
32533;SDS011;18973;48.580;8.912;2023-02-13T03:08:15;24.52;;;15.82;;
32533;SDS011;18973;48.580;8.912;2023-02-13T03:11:02;27.38;;;16.58;;
32533;SDS011;18973;48.580;8.912;2023-02-13T03:13:46;28.85;;;16.73;;
32533;SDS011;18973;48.580;8.912;2023-02-13T03:16:20;26.10;;;16.00;;
32533;SDS011;18973;48.580;8.912;2023-02-13T03:19:12;25.50;;;16.65;;
32533;SDS011;18973;48.580;8.912;2023-02-13T03:22:12;25.52;;;15.48;;
32533;SDS011;18973;48.580;8.912;2023-02-13T03:27:17;21.17;;;15.20;;
32533;SDS011;18973;48.580;8.912;2023-02-13T03:35:46;25.73;;;15.95;;
32533;SDS011;18973;48.580;8.912;2023-02-13T03:38:54;22.98;;;14.25;;
32533;SDS011;18973;48.580;8.912;2023-02-13T03:41:29;22.35;;;14.60;;
32533;SDS011;18973;48.580;8.912;2023-02-13T03:46:49;22.52;;;14.40;;
32533;SDS011;18973;48.580;8.912;2023-02-13T03:49:21;22.42;;;14.65;;
32533;SDS011;18973;48.580;8.912;2023-02-13T03:54:46;22.63;;;15.45;;
32533;SDS011;18973;48.580;8.912;2023-02-13T03:57:35;31.60;;;17.65;;
32533;SDS011;18973;48.580;8.912;2023-02-13T04:00:23;35.15;;;17.92;;
32533;SDS011;18973;48.580;8.912;2023-02-13T04:03:10;30.65;;;17.27;;
32533;SDS011;18973;48.580;8.912;2023-02-13T04:05:44;38.20;;;20.15;;
32533;SDS011;18973;48.580;8.912;2023-02-13T04:08:13;27.73;;;18.23;;
32533;SDS011;18973;48.580;8.912;2023-02-13T04:11:03;25.65;;;16.63;;
32533;SDS011;18973;48.580;8.912;2023-02-13T04:13:34;28.13;;;16.70;;
32533;SDS011;18973;48.580;8.912;2023-02-13T04:16:07;28.80;;;18.88;;
32533;SDS011;18973;48.580;8.912;2023-02-13T04:18:37;28.15;;;18.45;;
32533;SDS011;18973;48.580;8.912;2023-02-13T04:21:04;31.75;;;19.23;;
32533;SDS011;18973;48.580;8.912;2023-02-13T04:23:31;32.40;;;19.67;;
32533;SDS011;18973;48.580;8.912;2023-02-13T04:25:57;36.72;;;20.60;;
32533;SDS011;18973;48.580;8.912;2023-02-13T04:28:25;42.88;;;24.83;;
32533;SDS011;18973;48.580;8.912;2023-02-13T04:30:51;37.60;;;20.88;;
32533;SDS011;18973;48.580;8.912;2023-02-13T04:33:16;36.15;;;19.67;;
32533;SDS011;18973;48.580;8.912;2023-02-13T04:35:42;33.03;;;19.95;;
32533;SDS011;18973;48.580;8.912;2023-02-13T04:38:08;34.70;;;20.10;;
32533;SDS011;18973;48.580;8.912;2023-02-13T04:40:34;39.88;;;20.40;;
32533;SDS011;18973;48.580;8.912;2023-02-13T04:42:59;34.90;;;20.48;;
32533;SDS011;18973;48.580;8.912;2023-02-13T04:45:25;39.72;;;21.92;;
32533;SDS011;18973;48.580;8.912;2023-02-13T04:47:52;39.67;;;19.02;;
32533;SDS011;18973;48.580;8.912;2023-02-13T04:50:19;39.30;;;18.02;;
32533;SDS011;18973;48.580;8.912;2023-02-13T04:52:45;34.30;;;18.88;;
32533;SDS011;18973;48.580;8.912;2023-02-13T04:55:11;36.28;;;18.85;;
32533;SDS011;18973;48.580;8.912;2023-02-13T04:57:37;32.97;;;16.73;;
32533;SDS011;18973;48.580;8.912;2023-02-13T05:00:03;39.10;;;18.73;;
32533;SDS011;18973;48.580;8.912;2023-02-13T05:02:30;56.67;;;19.27;;
32533;SDS011;18973;48.580;8.912;2023-02-13T05:04:56;73.50;;;16.50;;
32533;SDS011;18973;48.580;8.912;2023-02-13T05:07:21;38.60;;;17.88;;
32533;SDS011;18973;48.580;8.912;2023-02-13T05:09:47;59.25;;;16.27;;
32533;SDS011;18973;48.580;8.912;2023-02-13T05:12:13;54.42;;;16.70;;
32533;SDS011;18973;48.580;8.912;2023-02-13T05:14:38;76.03;;;17.83;;
32533;SDS011;18973;48.580;8.912;2023-02-13T05:17:04;56.70;;;16.73;;
32533;SDS011;18973;48.580;8.912;2023-02-13T05:19:30;38.47;;;19.27;;
32533;SDS011;18973;48.580;8.912;2023-02-13T05:21:55;35.63;;;19.25;;
32533;SDS011;18973;48.580;8.912;2023-02-13T05:24:39;43.92;;;21.35;;
32533;SDS011;18973;48.580;8.912;2023-02-13T05:27:05;36.83;;;20.77;;
32533;SDS011;18973;48.580;8.912;2023-02-13T05:29:31;49.58;;;20.10;;
32533;SDS011;18973;48.580;8.912;2023-02-13T05:31:56;40.00;;;20.48;;
32533;SDS011;18973;48.580;8.912;2023-02-13T05:34:24;40.22;;;20.88;;
32533;SDS011;18973;48.580;8.912;2023-02-13T05:36:51;50.88;;;21.25;;
32533;SDS011;18973;48.580;8.912;2023-02-13T05:39:18;36.35;;;20.77;;
32533;SDS011;18973;48.580;8.912;2023-02-13T05:41:43;38.33;;;20.02;;
32533;SDS011;18973;48.580;8.912;2023-02-13T05:44:10;36.92;;;21.55;;
32533;SDS011;18973;48.580;8.912;2023-02-13T05:46:37;31.50;;;19.52;;
32533;SDS011;18973;48.580;8.912;2023-02-13T05:49:04;37.05;;;18.98;;
32533;SDS011;18973;48.580;8.912;2023-02-13T05:51:31;43.67;;;20.08;;
32533;SDS011;18973;48.580;8.912;2023-02-13T05:53:57;48.92;;;20.83;;
32533;SDS011;18973;48.580;8.912;2023-02-13T05:56:22;42.40;;;20.58;;
32533;SDS011;18973;48.580;8.912;2023-02-13T05:58:52;32.70;;;19.73;;
32533;SDS011;18973;48.580;8.912;2023-02-13T06:01:18;23.83;;;15.70;;
32533;SDS011;18973;48.580;8.912;2023-02-13T06:03:44;34.13;;;20.00;;
32533;SDS011;18973;48.580;8.912;2023-02-13T06:06:10;26.90;;;17.55;;
32533;SDS011;18973;48.580;8.912;2023-02-13T06:08:36;26.50;;;17.15;;
32533;SDS011;18973;48.580;8.912;2023-02-13T06:11:03;30.10;;;17.65;;
32533;SDS011;18973;48.580;8.912;2023-02-13T06:13:29;29.90;;;19.73;;
32533;SDS011;18973;48.580;8.912;2023-02-13T06:15:55;30.52;;;18.92;;
32533;SDS011;18973;48.580;8.912;2023-02-13T06:18:21;28.42;;;17.67;;
32533;SDS011;18973;48.580;8.912;2023-02-13T06:20:47;30.77;;;18.50;;
32533;SDS011;18973;48.580;8.912;2023-02-13T06:23:13;53.88;;;24.77;;
32533;SDS011;18973;48.580;8.912;2023-02-13T06:25:39;114.35;;;37.60;;
32533;SDS011;18973;48.580;8.912;2023-02-13T06:28:04;64.70;;;27.75;;
32533;SDS011;18973;48.580;8.912;2023-02-13T06:30:30;55.22;;;26.42;;
32533;SDS011;18973;48.580;8.912;2023-02-13T06:32:56;75.68;;;31.27;;
32533;SDS011;18973;48.580;8.912;2023-02-13T06:35:22;55.05;;;27.20;;
32533;SDS011;18973;48.580;8.912;2023-02-13T06:37:48;42.00;;;23.90;;
32533;SDS011;18973;48.580;8.912;2023-02-13T06:40:16;34.40;;;19.58;;
32533;SDS011;18973;48.580;8.912;2023-02-13T06:42:43;38.15;;;20.75;;
32533;SDS011;18973;48.580;8.912;2023-02-13T06:45:09;34.13;;;19.70;;
32533;SDS011;18973;48.580;8.912;2023-02-13T06:47:42;30.75;;;19.25;;
32533;SDS011;18973;48.580;8.912;2023-02-13T06:50:09;32.58;;;18.65;;
32533;SDS011;18973;48.580;8.912;2023-02-13T06:52:35;31.42;;;19.27;;
32533;SDS011;18973;48.580;8.912;2023-02-13T06:55:02;32.10;;;18.35;;
32533;SDS011;18973;48.580;8.912;2023-02-13T06:57:29;26.02;;;16.05;;
32533;SDS011;18973;48.580;8.912;2023-02-13T06:59:57;22.55;;;15.38;;
32533;SDS011;18973;48.580;8.912;2023-02-13T07:02:24;18.23;;;14.88;;
32533;SDS011;18973;48.580;8.912;2023-02-13T07:04:49;25.05;;;15.25;;
32533;SDS011;18973;48.580;8.912;2023-02-13T07:07:15;19.98;;;14.68;;
32533;SDS011;18973;48.580;8.912;2023-02-13T07:09:44;21.17;;;13.93;;
32533;SDS011;18973;48.580;8.912;2023-02-13T07:12:09;21.30;;;14.95;;
32533;SDS011;18973;48.580;8.912;2023-02-13T07:14:35;21.13;;;14.95;;
32533;SDS011;18973;48.580;8.912;2023-02-13T07:17:00;29.65;;;16.67;;
32533;SDS011;18973;48.580;8.912;2023-02-13T07:19:26;22.15;;;15.00;;
32533;SDS011;18973;48.580;8.912;2023-02-13T07:21:52;148.35;;;45.70;;
32533;SDS011;18973;48.580;8.912;2023-02-13T07:24:17;26.98;;;17.58;;
32533;SDS011;18973;48.580;8.912;2023-02-13T07:26:43;24.63;;;15.70;;
32533;SDS011;18973;48.580;8.912;2023-02-13T07:29:09;20.85;;;14.30;;
32533;SDS011;18973;48.580;8.912;2023-02-13T07:31:34;23.75;;;15.95;;
32533;SDS011;18973;48.580;8.912;2023-02-13T07:34:00;20.45;;;14.85;;
32533;SDS011;18973;48.580;8.912;2023-02-13T07:36:26;28.88;;;16.40;;
32533;SDS011;18973;48.580;8.912;2023-02-13T07:38:52;21.02;;;14.55;;
32533;SDS011;18973;48.580;8.912;2023-02-13T07:41:18;133.63;;;17.17;;
32533;SDS011;18973;48.580;8.912;2023-02-13T07:43:44;33.00;;;14.23;;
32533;SDS011;18973;48.580;8.912;2023-02-13T07:46:10;89.30;;;18.17;;
32533;SDS011;18973;48.580;8.912;2023-02-13T07:48:36;42.08;;;14.80;;
32533;SDS011;18973;48.580;8.912;2023-02-13T07:51:02;41.63;;;14.80;;
32533;SDS011;18973;48.580;8.912;2023-02-13T07:53:29;40.28;;;16.33;;
32533;SDS011;18973;48.580;8.912;2023-02-13T07:55:55;72.05;;;17.17;;
32533;SDS011;18973;48.580;8.912;2023-02-13T07:58:21;72.53;;;18.48;;
32533;SDS011;18973;48.580;8.912;2023-02-13T08:00:47;26.92;;;17.77;;
32533;SDS011;18973;48.580;8.912;2023-02-13T08:03:12;31.83;;;18.10;;
32533;SDS011;18973;48.580;8.912;2023-02-13T08:05:38;32.28;;;15.55;;
32533;SDS011;18973;48.580;8.912;2023-02-13T08:08:05;40.33;;;18.50;;
32533;SDS011;18973;48.580;8.912;2023-02-13T08:10:31;37.83;;;17.83;;
32533;SDS011;18973;48.580;8.912;2023-02-13T08:13:15;47.90;;;20.27;;
32533;SDS011;18973;48.580;8.912;2023-02-13T08:15:41;35.95;;;20.98;;
32533;SDS011;18973;48.580;8.912;2023-02-13T08:18:08;46.35;;;19.70;;
32533;SDS011;18973;48.580;8.912;2023-02-13T08:20:34;36.65;;;18.20;;
32533;SDS011;18973;48.580;8.912;2023-02-13T08:23:08;55.65;;;22.40;;
32533;SDS011;18973;48.580;8.912;2023-02-13T08:25:36;38.53;;;19.15;;
32533;SDS011;18973;48.580;8.912;2023-02-13T08:28:02;52.78;;;19.58;;
32533;SDS011;18973;48.580;8.912;2023-02-13T08:30:28;38.03;;;21.02;;
32533;SDS011;18973;48.580;8.912;2023-02-13T08:32:54;57.70;;;22.00;;
32533;SDS011;18973;48.580;8.912;2023-02-13T08:35:20;66.00;;;21.35;;
32533;SDS011;18973;48.580;8.912;2023-02-13T08:37:46;35.33;;;20.30;;
32533;SDS011;18973;48.580;8.912;2023-02-13T08:40:12;56.90;;;22.05;;
32533;SDS011;18973;48.580;8.912;2023-02-13T08:42:38;38.55;;;20.65;;
32533;SDS011;18973;48.580;8.912;2023-02-13T08:45:04;53.30;;;22.75;;
32533;SDS011;18973;48.580;8.912;2023-02-13T08:47:30;43.13;;;19.90;;
32533;SDS011;18973;48.580;8.912;2023-02-13T08:49:56;70.55;;;21.02;;
32533;SDS011;18973;48.580;8.912;2023-02-13T08:52:22;51.75;;;22.90;;
32533;SDS011;18973;48.580;8.912;2023-02-13T08:54:48;42.80;;;23.92;;
32533;SDS011;18973;48.580;8.912;2023-02-13T08:57:14;46.53;;;23.80;;
32533;SDS011;18973;48.580;8.912;2023-02-13T08:59:39;60.80;;;22.83;;
32533;SDS011;18973;48.580;8.912;2023-02-13T09:02:05;47.88;;;23.17;;
32533;SDS011;18973;48.580;8.912;2023-02-13T09:04:31;48.20;;;22.77;;
32533;SDS011;18973;48.580;8.912;2023-02-13T09:06:57;65.93;;;21.70;;
32533;SDS011;18973;48.580;8.912;2023-02-13T09:09:22;43.60;;;21.48;;
32533;SDS011;18973;48.580;8.912;2023-02-13T09:11:48;75.13;;;21.67;;
32533;SDS011;18973;48.580;8.912;2023-02-13T09:14:15;52.53;;;22.25;;
32533;SDS011;18973;48.580;8.912;2023-02-13T09:16:41;58.75;;;21.73;;
32533;SDS011;18973;48.580;8.912;2023-02-13T09:19:07;75.35;;;22.98;;
32533;SDS011;18973;48.580;8.912;2023-02-13T09:21:32;49.47;;;22.77;;
32533;SDS011;18973;48.580;8.912;2023-02-13T09:23:58;51.13;;;25.13;;
32533;SDS011;18973;48.580;8.912;2023-02-13T09:26:24;52.80;;;25.60;;
32533;SDS011;18973;48.580;8.912;2023-02-13T09:28:49;47.38;;;24.00;;
32533;SDS011;18973;48.580;8.912;2023-02-13T09:31:19;44.40;;;22.48;;
32533;SDS011;18973;48.580;8.912;2023-02-13T09:33:46;84.85;;;21.08;;
32533;SDS011;18973;48.580;8.912;2023-02-13T09:36:14;44.72;;;24.00;;
32533;SDS011;18973;48.580;8.912;2023-02-13T09:38:43;58.88;;;23.75;;
32533;SDS011;18973;48.580;8.912;2023-02-13T09:41:11;61.78;;;21.67;;
32533;SDS011;18973;48.580;8.912;2023-02-13T09:44:00;45.67;;;22.92;;
32533;SDS011;18973;48.580;8.912;2023-02-13T09:46:32;77.90;;;27.52;;
32533;SDS011;18973;48.580;8.912;2023-02-13T09:49:12;62.45;;;28.05;;
32533;SDS011;18973;48.580;8.912;2023-02-13T09:51:43;55.20;;;25.92;;
32533;SDS011;18973;48.580;8.912;2023-02-13T09:54:13;61.38;;;28.02;;
32533;SDS011;18973;48.580;8.912;2023-02-13T09:56:56;50.10;;;25.40;;
32533;SDS011;18973;48.580;8.912;2023-02-13T09:59:52;67.53;;;26.90;;
32533;SDS011;18973;48.580;8.912;2023-02-13T10:16:07;54.55;;;27.75;;
32533;SDS011;18973;48.580;8.912;2023-02-13T10:18:42;49.35;;;27.08;;
32533;SDS011;18973;48.580;8.912;2023-02-13T10:21:13;50.72;;;26.65;;
32533;SDS011;18973;48.580;8.912;2023-02-13T10:23:45;49.80;;;24.55;;
32533;SDS011;18973;48.580;8.912;2023-02-13T10:26:19;47.33;;;24.20;;
32533;SDS011;18973;48.580;8.912;2023-02-13T10:29:09;56.78;;;28.90;;
32533;SDS011;18973;48.580;8.912;2023-02-13T10:32:14;46.17;;;25.67;;
32533;SDS011;18973;48.580;8.912;2023-02-13T10:34:44;50.78;;;25.25;;
32533;SDS011;18973;48.580;8.912;2023-02-13T10:37:18;49.60;;;26.45;;
32533;SDS011;18973;48.580;8.912;2023-02-13T10:39:45;52.77;;;26.57;;
32533;SDS011;18973;48.580;8.912;2023-02-13T10:47:25;45.75;;;24.35;;
32533;SDS011;18973;48.580;8.912;2023-02-13T10:50:16;51.28;;;24.50;;
32533;SDS011;18973;48.580;8.912;2023-02-13T10:52:53;49.08;;;25.13;;
32533;SDS011;18973;48.580;8.912;2023-02-13T11:00:50;40.92;;;23.40;;
32533;SDS011;18973;48.580;8.912;2023-02-13T11:03:24;47.92;;;25.02;;
32533;SDS011;18973;48.580;8.912;2023-02-13T11:05:51;41.15;;;23.23;;
32533;SDS011;18973;48.580;8.912;2023-02-13T11:08:22;45.30;;;26.83;;
32533;SDS011;18973;48.580;8.912;2023-02-13T11:10:50;46.78;;;25.42;;
32533;SDS011;18973;48.580;8.912;2023-02-13T11:13:20;52.42;;;29.10;;
32533;SDS011;18973;48.580;8.912;2023-02-13T11:16:01;46.33;;;25.40;;
32533;SDS011;18973;48.580;8.912;2023-02-13T11:18:30;44.38;;;25.75;;
32533;SDS011;18973;48.580;8.912;2023-02-13T11:21:19;42.70;;;23.95;;
32533;SDS011;18973;48.580;8.912;2023-02-13T11:23:50;42.78;;;24.17;;
32533;SDS011;18973;48.580;8.912;2023-02-13T11:26:23;45.47;;;23.85;;
32533;SDS011;18973;48.580;8.912;2023-02-13T11:28:56;44.60;;;24.42;;
32533;SDS011;18973;48.580;8.912;2023-02-13T11:31:29;42.75;;;24.15;;
32533;SDS011;18973;48.580;8.912;2023-02-13T11:33:57;45.78;;;23.92;;
32533;SDS011;18973;48.580;8.912;2023-02-13T11:36:26;41.60;;;24.27;;
32533;SDS011;18973;48.580;8.912;2023-02-13T11:39:02;38.30;;;21.00;;
32533;SDS011;18973;48.580;8.912;2023-02-13T11:41:31;42.63;;;23.38;;
32533;SDS011;18973;48.580;8.912;2023-02-13T11:44:04;38.78;;;22.88;;
32533;SDS011;18973;48.580;8.912;2023-02-13T11:46:48;45.80;;;23.23;;
32533;SDS011;18973;48.580;8.912;2023-02-13T11:49:16;40.25;;;23.08;;
32533;SDS011;18973;48.580;8.912;2023-02-13T11:52:49;42.78;;;24.08;;
32533;SDS011;18973;48.580;8.912;2023-02-13T11:55:02;36.03;;;21.83;;
32533;SDS011;18973;48.580;8.912;2023-02-13T11:57:34;41.47;;;23.55;;
32533;SDS011;18973;48.580;8.912;2023-02-13T12:02:51;41.22;;;24.00;;
32533;SDS011;18973;48.580;8.912;2023-02-13T12:05:21;35.90;;;21.65;;
32533;SDS011;18973;48.580;8.912;2023-02-13T12:07:51;42.03;;;23.25;;
32533;SDS011;18973;48.580;8.912;2023-02-13T12:10:24;26.85;;;16.48;;
32533;SDS011;18973;48.580;8.912;2023-02-13T12:12:55;34.13;;;20.40;;
32533;SDS011;18973;48.580;8.912;2023-02-13T12:15:38;31.48;;;19.20;;
32533;SDS011;18973;48.580;8.912;2023-02-13T12:20:39;32.58;;;19.35;;
32533;SDS011;18973;48.580;8.912;2023-02-13T12:28:45;32.38;;;19.17;;
32533;SDS011;18973;48.580;8.912;2023-02-13T12:45:37;33.72;;;20.60;;
32533;SDS011;18973;48.580;8.912;2023-02-13T12:48:39;28.33;;;18.38;;
32533;SDS011;18973;48.580;8.912;2023-02-13T12:56:50;29.77;;;18.58;;
32533;SDS011;18973;48.580;8.912;2023-02-13T13:10:54;29.00;;;18.13;;
32533;SDS011;18973;48.580;8.912;2023-02-13T13:16:37;27.60;;;18.08;;
32533;SDS011;18973;48.580;8.912;2023-02-13T13:19:25;25.65;;;16.90;;
32533;SDS011;18973;48.580;8.912;2023-02-13T13:27:44;25.98;;;16.27;;
32533;SDS011;18973;48.580;8.912;2023-02-13T13:30:16;24.20;;;16.02;;
32533;SDS011;18973;48.580;8.912;2023-02-13T13:33:34;24.92;;;16.70;;
32533;SDS011;18973;48.580;8.912;2023-02-13T13:35:37;24.55;;;16.27;;
32533;SDS011;18973;48.580;8.912;2023-02-13T13:47:01;26.80;;;16.60;;
32533;SDS011;18973;48.580;8.912;2023-02-13T13:49:51;47.60;;;25.90;;
32533;SDS011;18973;48.580;8.912;2023-02-13T13:52:29;30.90;;;20.73;;
32533;SDS011;18973;48.580;8.912;2023-02-13T13:55:04;25.80;;;15.98;;
32533;SDS011;18973;48.580;8.912;2023-02-13T14:12:58;27.08;;;16.98;;
32533;SDS011;18973;48.580;8.912;2023-02-13T14:23:27;28.85;;;17.50;;
32533;SDS011;18973;48.580;8.912;2023-02-13T14:26:16;33.35;;;19.20;;
32533;SDS011;18973;48.580;8.912;2023-02-13T14:29:22;27.52;;;17.35;;
32533;SDS011;18973;48.580;8.912;2023-02-13T14:32:04;24.67;;;17.60;;
32533;SDS011;18973;48.580;8.912;2023-02-13T14:34:39;25.95;;;15.82;;
32533;SDS011;18973;48.580;8.912;2023-02-13T14:39:34;33.70;;;19.13;;
32533;SDS011;18973;48.580;8.912;2023-02-13T14:42:25;30.20;;;17.45;;
32533;SDS011;18973;48.580;8.912;2023-02-13T14:44:54;28.50;;;17.30;;
32533;SDS011;18973;48.580;8.912;2023-02-13T14:50:04;22.50;;;17.05;;
32533;SDS011;18973;48.580;8.912;2023-02-13T14:52:33;24.23;;;16.05;;
32533;SDS011;18973;48.580;8.912;2023-02-13T14:55:03;25.77;;;17.70;;
32533;SDS011;18973;48.580;8.912;2023-02-13T14:57:37;23.42;;;16.20;;
32533;SDS011;18973;48.580;8.912;2023-02-13T15:00:11;22.90;;;15.63;;
32533;SDS011;18973;48.580;8.912;2023-02-13T15:02:41;24.58;;;16.30;;
32533;SDS011;18973;48.580;8.912;2023-02-13T15:05:13;26.23;;;17.25;;
32533;SDS011;18973;48.580;8.912;2023-02-13T15:07:45;26.27;;;16.00;;
32533;SDS011;18973;48.580;8.912;2023-02-13T15:10:27;24.50;;;16.77;;
32533;SDS011;18973;48.580;8.912;2023-02-13T15:13:16;23.83;;;16.48;;
32533;SDS011;18973;48.580;8.912;2023-02-13T15:15:55;28.45;;;17.60;;
32533;SDS011;18973;48.580;8.912;2023-02-13T15:18:29;24.42;;;16.60;;
32533;SDS011;18973;48.580;8.912;2023-02-13T15:21:00;24.63;;;16.05;;
32533;SDS011;18973;48.580;8.912;2023-02-13T15:23:30;36.00;;;22.85;;
32533;SDS011;18973;48.580;8.912;2023-02-13T15:25:58;24.83;;;16.42;;
32533;SDS011;18973;48.580;8.912;2023-02-13T15:28:25;23.30;;;15.43;;
32533;SDS011;18973;48.580;8.912;2023-02-13T15:30:56;23.92;;;15.10;;
32533;SDS011;18973;48.580;8.912;2023-02-13T15:33:29;23.90;;;15.52;;
32533;SDS011;18973;48.580;8.912;2023-02-13T15:36:02;24.17;;;15.35;;
32533;SDS011;18973;48.580;8.912;2023-02-13T15:38:32;25.48;;;16.40;;
32533;SDS011;18973;48.580;8.912;2023-02-13T15:41:08;23.45;;;15.10;;
32533;SDS011;18973;48.580;8.912;2023-02-13T15:43:47;21.75;;;15.48;;
32533;SDS011;18973;48.580;8.912;2023-02-13T15:48:47;24.58;;;16.08;;
32533;SDS011;18973;48.580;8.912;2023-02-13T15:51:17;25.42;;;15.07;;
32533;SDS011;18973;48.580;8.912;2023-02-13T15:53:54;27.53;;;17.17;;
32533;SDS011;18973;48.580;8.912;2023-02-13T15:56:21;29.23;;;16.95;;
32533;SDS011;18973;48.580;8.912;2023-02-13T15:58:48;21.55;;;15.25;;
32533;SDS011;18973;48.580;8.912;2023-02-13T16:01:15;24.80;;;16.27;;
32533;SDS011;18973;48.580;8.912;2023-02-13T16:03:42;21.65;;;15.77;;
32533;SDS011;18973;48.580;8.912;2023-02-13T16:06:13;23.27;;;16.83;;
32533;SDS011;18973;48.580;8.912;2023-02-13T16:08:59;26.23;;;17.58;;
32533;SDS011;18973;48.580;8.912;2023-02-13T16:11:38;25.13;;;16.77;;
32533;SDS011;18973;48.580;8.912;2023-02-13T16:14:21;23.08;;;15.55;;
32533;SDS011;18973;48.580;8.912;2023-02-13T16:22:46;24.02;;;16.27;;
32533;SDS011;18973;48.580;8.912;2023-02-13T16:24:47;28.70;;;17.45;;
32533;SDS011;18973;48.580;8.912;2023-02-13T16:27:16;25.48;;;16.67;;
32533;SDS011;18973;48.580;8.912;2023-02-13T16:29:57;24.58;;;16.52;;
32533;SDS011;18973;48.580;8.912;2023-02-13T16:32:26;26.30;;;16.05;;
32533;SDS011;18973;48.580;8.912;2023-02-13T16:34:54;25.83;;;16.92;;
32533;SDS011;18973;48.580;8.912;2023-02-13T16:37:32;27.80;;;17.60;;
32533;SDS011;18973;48.580;8.912;2023-02-13T16:53:58;26.05;;;17.65;;
32533;SDS011;18973;48.580;8.912;2023-02-13T16:56:26;32.75;;;19.25;;
32533;SDS011;18973;48.580;8.912;2023-02-13T17:04:44;45.92;;;23.73;;
32533;SDS011;18973;48.580;8.912;2023-02-13T17:07:15;225.95;;;84.00;;
32533;SDS011;18973;48.580;8.912;2023-02-13T17:10:06;85.97;;;40.78;;
32533;SDS011;18973;48.580;8.912;2023-02-13T17:12:43;131.45;;;48.42;;
32533;SDS011;18973;48.580;8.912;2023-02-13T17:15:14;101.40;;;43.63;;
32533;SDS011;18973;48.580;8.912;2023-02-13T17:17:47;76.43;;;34.95;;
32533;SDS011;18973;48.580;8.912;2023-02-13T17:20:24;54.13;;;26.73;;
32533;SDS011;18973;48.580;8.912;2023-02-13T17:22:56;32.50;;;19.85;;
32533;SDS011;18973;48.580;8.912;2023-02-13T17:25:27;29.55;;;19.45;;
32533;SDS011;18973;48.580;8.912;2023-02-13T17:27:58;29.67;;;19.73;;
32533;SDS011;18973;48.580;8.912;2023-02-13T17:30:48;27.13;;;17.67;;
32533;SDS011;18973;48.580;8.912;2023-02-13T17:33:26;28.88;;;18.83;;
32533;SDS011;18973;48.580;8.912;2023-02-13T17:35:58;32.65;;;20.05;;
32533;SDS011;18973;48.580;8.912;2023-02-13T17:38:23;43.83;;;22.73;;
32533;SDS011;18973;48.580;8.912;2023-02-13T17:40:49;40.38;;;22.92;;
32533;SDS011;18973;48.580;8.912;2023-02-13T17:43:16;38.72;;;25.25;;
32533;SDS011;18973;48.580;8.912;2023-02-13T17:45:44;46.95;;;27.42;;
32533;SDS011;18973;48.580;8.912;2023-02-13T17:48:10;37.28;;;23.98;;
32533;SDS011;18973;48.580;8.912;2023-02-13T17:50:36;34.25;;;20.48;;